createdAt,value
2023-05-19T00:01:04.855Z,43.73
2023-05-19T00:03:31.399Z,43.69
2023-05-19T00:05:58.149Z,44.16
2023-05-19T00:08:24.699Z,43.95
2023-05-19T00:10:51.340Z,44.01
2023-05-19T00:13:17.892Z,43.72
2023-05-19T00:15:44.571Z,43.92
2023-05-19T00:18:11.283Z,43.88
2023-05-19T00:20:37.914Z,44.11
2023-05-19T00:23:04.519Z,43.96
2023-05-19T00:25:31.074Z,44.00
2023-05-19T00:27:57.637Z,43.95
2023-05-19T00:30:24.184Z,43.87
2023-05-19T00:32:50.860Z,43.96
2023-05-19T00:35:17.520Z,44.16
2023-05-19T00:37:44.150Z,44.02
2023-05-19T00:40:10.679Z,44.01
2023-05-19T00:42:37.371Z,43.99
2023-05-19T00:45:04.034Z,43.99
2023-05-19T00:47:30.540Z,43.92
2023-05-19T00:49:57.150Z,43.99
2023-05-19T00:52:23.752Z,44.04
2023-05-19T00:54:50.350Z,43.84
2023-05-19T00:57:16.881Z,43.97
2023-05-19T00:59:43.410Z,44.05
2023-05-19T01:02:10.010Z,43.83
2023-05-19T01:04:36.537Z,43.95
2023-05-19T01:07:03.071Z,44.12
2023-05-19T01:09:29.663Z,43.65
2023-05-19T01:11:56.237Z,43.96
2023-05-19T01:14:22.805Z,43.93
2023-05-19T01:16:49.463Z,43.76
2023-05-19T01:19:16.176Z,43.90
2023-05-19T01:21:42.761Z,43.93
2023-05-19T01:24:09.326Z,44.07
2023-05-19T01:26:35.923Z,43.85
2023-05-19T01:29:03.510Z,44.03
2023-05-19T01:31:30.052Z,43.95
2023-05-19T01:33:56.634Z,44.03
2023-05-19T01:36:23.250Z,44.04
2023-05-19T01:38:49.833Z,43.86
2023-05-19T01:41:16.425Z,43.68
2023-05-19T01:43:42.958Z,43.95
2023-05-19T01:46:09.645Z,44.17
2023-05-19T01:48:36.279Z,43.95
2023-05-19T01:51:02.845Z,44.03
2023-05-19T01:53:29.503Z,44.07
2023-05-19T01:55:56.097Z,43.88
2023-05-19T01:58:22.550Z,43.81
2023-05-19T02:00:49.191Z,43.92
2023-05-19T02:03:15.711Z,43.89
2023-05-19T02:05:42.232Z,44.08
2023-05-19T02:08:08.761Z,43.92
2023-05-19T02:10:35.356Z,44.05
2023-05-19T02:13:01.855Z,44.11
2023-05-19T02:15:28.427Z,44.16
2023-05-19T02:17:55.052Z,44.12
2023-05-19T02:20:21.643Z,44.09
2023-05-19T02:22:48.206Z,43.91
2023-05-19T02:25:14.776Z,44.02
2023-05-19T02:27:41.352Z,43.95
2023-05-19T02:30:07.955Z,44.01
2023-05-19T02:32:34.521Z,44.25
2023-05-19T02:35:01.158Z,43.81
2023-05-19T02:37:27.703Z,43.93
2023-05-19T02:39:54.279Z,44.02
2023-05-19T02:42:20.876Z,43.83
2023-05-19T02:44:47.445Z,43.86
2023-05-19T02:47:14.061Z,43.87
2023-05-19T02:49:40.731Z,43.90
2023-05-19T02:52:07.257Z,44.04
2023-05-19T02:54:33.803Z,44.20
2023-05-19T02:57:00.381Z,43.80
2023-05-19T02:59:26.967Z,44.05
2023-05-19T03:01:53.534Z,43.95
2023-05-19T03:04:20.045Z,43.84
2023-05-19T03:06:46.560Z,43.84
2023-05-19T03:09:13.089Z,43.78
2023-05-19T03:11:39.734Z,43.90
2023-05-19T03:14:06.300Z,44.08
2023-05-19T03:16:32.835Z,43.89
2023-05-19T03:18:59.490Z,43.97
2023-05-19T03:21:26.109Z,43.85
2023-05-19T03:23:52.654Z,43.89
2023-05-19T03:26:19.160Z,43.80
2023-05-19T03:28:45.709Z,44.17
2023-05-19T03:31:12.253Z,44.11
2023-05-19T03:33:39.027Z,43.84
2023-05-19T03:36:05.632Z,43.80
2023-05-19T03:38:32.139Z,43.89
2023-05-19T03:40:58.790Z,43.86
2023-05-19T03:43:25.302Z,43.96
2023-05-19T03:45:51.822Z,43.78
2023-05-19T03:48:21.099Z,43.83
2023-05-19T03:50:47.932Z,43.91
2023-05-19T03:53:14.535Z,43.97
2023-05-19T03:55:41.176Z,43.70
2023-05-19T03:58:07.713Z,43.90
2023-05-19T04:00:34.471Z,43.76
2023-05-19T04:03:01.533Z,43.74
2023-05-19T04:05:28.252Z,43.80
2023-05-19T04:07:54.977Z,43.99
2023-05-19T04:10:21.563Z,44.20
2023-05-19T04:12:48.147Z,44.15
2023-05-19T04:15:14.675Z,44.18
2023-05-19T04:17:41.206Z,44.08
2023-05-19T04:20:07.780Z,43.97
2023-05-19T04:22:34.364Z,44.00
2023-05-19T04:25:00.887Z,44.16
2023-05-19T04:27:27.423Z,43.89
2023-05-19T04:29:53.953Z,44.07
2023-05-19T04:32:20.526Z,43.96
2023-05-19T04:34:47.110Z,44.06
2023-05-19T04:37:13.635Z,44.04
2023-05-19T04:39:40.184Z,44.08
2023-05-19T04:42:06.713Z,43.80
2023-05-19T04:44:33.305Z,43.98
2023-05-19T04:46:59.884Z,43.87
2023-05-19T04:49:26.442Z,43.95
2023-05-19T04:51:55.593Z,43.89
2023-05-19T04:54:22.501Z,43.72
2023-05-19T04:56:49.017Z,43.73
2023-05-19T04:59:15.559Z,43.74
2023-05-19T05:01:42.152Z,43.27
2023-05-19T05:04:08.711Z,42.94
2023-05-19T05:06:35.390Z,42.82
2023-05-19T05:09:01.975Z,42.39
2023-05-19T05:11:28.588Z,42.26
2023-05-19T05:13:55.183Z,42.94
2023-05-19T05:16:21.726Z,43.71
2023-05-19T05:18:48.426Z,43.54
2023-05-19T05:21:14.979Z,43.71
2023-05-19T05:23:44.251Z,44.16
2023-05-19T05:26:13.849Z,43.36
2023-05-19T05:28:40.431Z,43.68
2023-05-19T05:31:07.097Z,43.85
2023-05-19T05:33:33.724Z,43.41
2023-05-19T05:36:00.307Z,43.59
2023-05-19T05:38:26.838Z,43.40
2023-05-19T05:40:53.362Z,43.37
2023-05-19T05:43:19.880Z,43.83
2023-05-19T05:45:46.396Z,43.66
2023-05-19T05:48:12.986Z,43.43
2023-05-19T05:50:39.534Z,43.55
2023-05-19T05:53:06.008Z,43.72
2023-05-19T05:55:32.588Z,43.35
2023-05-19T05:57:59.247Z,43.33
2023-05-19T06:00:25.812Z,43.44
2023-05-19T06:02:52.454Z,43.89
2023-05-19T06:05:19.082Z,44.20
2023-05-19T06:07:45.584Z,44.31
2023-05-19T06:10:12.039Z,44.12
2023-05-19T06:12:38.591Z,43.85
2023-05-19T06:15:05.189Z,44.22
2023-05-19T06:17:31.789Z,43.84
2023-05-19T06:19:58.292Z,44.19
2023-05-19T06:22:24.745Z,44.80
2023-05-19T06:24:51.182Z,44.66
2023-05-19T06:27:17.666Z,44.40
2023-05-19T06:29:44.164Z,44.49
2023-05-19T06:32:10.611Z,44.39
2023-05-19T06:34:40.039Z,44.46
2023-05-19T06:37:06.595Z,44.38
2023-05-19T06:39:33.127Z,44.24
2023-05-19T06:41:59.694Z,43.96
2023-05-19T06:44:26.190Z,44.06
2023-05-19T06:46:52.814Z,43.96
2023-05-19T06:49:19.372Z,43.87
2023-05-19T06:51:45.818Z,44.04
2023-05-19T06:54:12.347Z,44.06
2023-05-19T06:56:38.893Z,44.06
2023-05-19T06:59:05.519Z,44.04
2023-05-19T07:01:32.116Z,44.07
2023-05-19T07:03:58.770Z,43.91
2023-05-19T07:06:25.309Z,43.75
2023-05-19T07:08:51.827Z,43.57
2023-05-19T07:11:22.113Z,43.69
2023-05-19T07:13:48.637Z,43.71
2023-05-19T07:16:15.258Z,43.71
2023-05-19T07:18:41.818Z,43.76
2023-05-19T07:21:08.469Z,43.73
2023-05-19T07:23:34.980Z,43.39
2023-05-19T07:26:01.446Z,43.39
2023-05-19T07:28:27.967Z,43.66
2023-05-19T07:30:54.525Z,44.04
2023-05-19T07:33:21.055Z,44.83
2023-05-19T07:35:47.625Z,44.39
2023-05-19T07:38:14.182Z,44.27
2023-05-19T07:40:40.762Z,44.30
2023-05-19T07:43:07.379Z,42.66
2023-05-19T07:45:34.057Z,43.17
2023-05-19T07:48:01.549Z,41.94
2023-05-19T07:50:28.078Z,42.30
2023-05-19T07:52:54.576Z,41.04
2023-05-19T07:55:21.125Z,39.61
2023-05-19T07:57:47.711Z,39.30
2023-05-19T08:00:14.285Z,37.82
2023-05-19T08:02:40.860Z,37.24
2023-05-19T08:05:07.470Z,38.97
2023-05-19T08:07:33.963Z,38.49
2023-05-19T08:10:00.698Z,38.24
2023-05-19T08:12:27.296Z,37.37
2023-05-19T08:14:53.816Z,38.49
2023-05-19T08:17:20.320Z,38.00
2023-05-19T08:19:46.885Z,37.26
2023-05-19T08:22:13.377Z,36.89
2023-05-19T08:24:39.929Z,37.06
2023-05-19T08:27:06.465Z,36.50
2023-05-19T08:29:32.920Z,36.56
2023-05-19T08:31:59.492Z,36.20
2023-05-19T08:34:26.106Z,36.69
2023-05-19T08:36:52.644Z,36.81
2023-05-19T08:39:19.187Z,36.58
2023-05-19T08:41:45.750Z,36.61
2023-05-19T08:44:12.295Z,36.64
2023-05-19T08:46:38.914Z,36.40
2023-05-19T08:49:05.442Z,36.35
2023-05-19T08:51:32.001Z,36.52
2023-05-19T08:53:58.485Z,36.77
2023-05-19T08:56:24.980Z,36.24
2023-05-19T08:58:51.450Z,36.76
2023-05-19T09:01:20.855Z,36.46
2023-05-19T09:03:47.569Z,36.44
2023-05-19T09:06:14.196Z,36.18
2023-05-19T09:08:40.685Z,36.71
2023-05-19T09:11:07.179Z,36.68
2023-05-19T09:13:33.731Z,36.91
2023-05-19T09:16:00.364Z,36.66
2023-05-19T09:18:26.939Z,36.63
2023-05-19T09:20:53.459Z,37.12
2023-05-19T09:23:19.952Z,37.06
2023-05-19T09:25:46.492Z,37.62
2023-05-19T09:28:13.069Z,37.15
2023-05-19T09:30:39.621Z,37.37
2023-05-19T09:33:08.873Z,36.67
2023-05-19T09:35:35.626Z,36.89
2023-05-19T09:38:02.198Z,36.76
2023-05-19T09:40:28.772Z,36.53
2023-05-19T09:42:55.264Z,36.58
2023-05-19T09:45:21.793Z,36.49
2023-05-19T09:47:48.358Z,36.28
2023-05-19T09:50:15.002Z,36.31
2023-05-19T09:52:41.511Z,36.11
2023-05-19T09:55:08.053Z,36.13
2023-05-19T09:57:34.553Z,36.11
2023-05-19T10:00:01.072Z,36.59
2023-05-19T10:02:27.596Z,36.10
2023-05-19T10:04:54.167Z,36.08
2023-05-19T10:07:20.771Z,36.85
2023-05-19T10:09:47.301Z,36.63
2023-05-19T10:12:13.822Z,37.33
2023-05-19T10:14:40.372Z,36.77
2023-05-19T10:17:06.898Z,37.42
2023-05-19T10:19:33.513Z,37.66
2023-05-19T10:22:00.120Z,37.66
2023-05-19T10:24:26.627Z,36.90
2023-05-19T10:26:53.180Z,36.33
2023-05-19T10:29:19.790Z,37.52
2023-05-19T10:31:46.414Z,37.83
2023-05-19T10:34:12.956Z,38.04
2023-05-19T10:36:39.527Z,38.16
2023-05-19T10:39:06.081Z,38.32
2023-05-19T10:41:32.577Z,37.60
2023-05-19T10:44:02.548Z,38.18
2023-05-19T10:46:29.134Z,38.60
2023-05-19T10:48:55.694Z,38.70
2023-05-19T10:51:22.187Z,38.63
2023-05-19T10:53:48.767Z,38.85
2023-05-19T10:56:15.344Z,38.51
2023-05-19T10:58:41.905Z,38.86
2023-05-19T11:01:08.493Z,38.78
2023-05-19T11:03:35.021Z,38.65
2023-05-19T11:06:01.556Z,38.65
2023-05-19T11:08:28.147Z,38.74
2023-05-19T11:10:54.653Z,38.36
2023-05-19T11:13:26.140Z,38.39
2023-05-19T11:15:52.715Z,38.27
2023-05-19T11:18:19.247Z,38.56
2023-05-19T11:20:45.804Z,38.53
2023-05-19T11:23:12.307Z,38.20
2023-05-19T11:25:38.818Z,38.08
2023-05-19T11:28:05.412Z,38.13
2023-05-19T11:30:31.909Z,38.59
2023-05-19T11:32:58.605Z,38.38
2023-05-19T11:35:25.148Z,38.11
2023-05-19T11:37:51.649Z,38.32
2023-05-19T11:40:18.229Z,37.76
2023-05-19T11:42:44.717Z,37.81
2023-05-19T11:45:11.259Z,37.72
2023-05-19T11:47:50.737Z,37.84
2023-05-19T11:50:18.498Z,37.55
2023-05-19T11:52:45.027Z,37.67
2023-05-19T11:55:11.569Z,37.65
2023-05-19T11:57:38.100Z,37.60
2023-05-19T12:00:04.634Z,37.71
2023-05-19T12:02:31.299Z,37.63
2023-05-19T12:04:57.940Z,37.70
2023-05-19T12:07:24.530Z,37.50
2023-05-19T12:09:51.014Z,37.49
2023-05-19T12:12:17.479Z,37.61
2023-05-19T12:14:44.029Z,37.81
2023-05-19T12:17:10.593Z,37.55
2023-05-19T12:19:37.198Z,37.48
2023-05-19T12:22:04.168Z,37.29
2023-05-19T12:24:30.702Z,37.10
2023-05-19T12:26:57.237Z,37.40
2023-05-19T12:29:23.918Z,37.27
2023-05-19T12:31:50.526Z,37.03
2023-05-19T12:34:17.096Z,37.16
2023-05-19T12:36:43.557Z,36.53
2023-05-19T12:39:10.017Z,36.75
2023-05-19T12:41:36.544Z,36.75
2023-05-19T12:44:03.034Z,36.45
2023-05-19T12:46:29.553Z,36.63
2023-05-19T12:48:56.144Z,36.77
2023-05-19T12:51:22.630Z,36.20
2023-05-19T12:53:49.751Z,36.48
2023-05-19T12:56:19.262Z,36.64
2023-05-19T12:58:45.817Z,36.22
2023-05-19T13:01:12.575Z,36.08
2023-05-19T13:03:39.382Z,36.15
2023-05-19T13:06:05.992Z,36.03
2023-05-19T13:08:32.527Z,35.86
2023-05-19T13:10:59.097Z,36.10
2023-05-19T13:13:25.575Z,35.88
2023-05-19T13:15:52.040Z,35.66
2023-05-19T13:18:18.615Z,36.01
2023-05-19T13:20:45.167Z,35.84
2023-05-19T13:23:11.714Z,35.65
2023-05-19T13:25:38.217Z,35.43
2023-05-19T13:28:04.739Z,35.65
2023-05-19T13:30:31.194Z,34.99
2023-05-19T13:32:57.798Z,35.52
2023-05-19T13:35:24.403Z,35.16
2023-05-19T13:37:50.988Z,35.19
2023-05-19T13:40:17.443Z,35.19
2023-05-19T13:42:44.052Z,35.25
2023-05-19T13:45:10.589Z,34.56
2023-05-19T13:47:37.084Z,34.96
2023-05-19T13:50:03.545Z,34.75
2023-05-19T13:52:30.634Z,34.71
2023-05-19T13:54:57.192Z,34.44
2023-05-19T13:57:23.650Z,34.71
2023-05-19T14:00:01.786Z,34.71
2023-05-19T14:02:30.472Z,34.64
2023-05-19T14:04:57.340Z,34.23
2023-05-19T14:07:23.897Z,34.26
2023-05-19T14:09:50.448Z,34.51
2023-05-19T14:12:17.129Z,34.10
2023-05-19T14:14:43.712Z,34.42
2023-05-19T14:17:10.184Z,34.29
2023-05-19T14:19:36.702Z,34.27
2023-05-19T14:22:03.161Z,34.40
2023-05-19T14:24:29.686Z,34.40
2023-05-19T14:26:56.187Z,34.18
2023-05-19T14:29:22.842Z,34.40
2023-05-19T14:31:49.438Z,34.06
2023-05-19T14:34:16.047Z,34.41
2023-05-19T14:36:42.548Z,34.68
2023-05-19T14:39:09.071Z,34.40
2023-05-19T14:41:35.583Z,34.10
2023-05-19T14:44:02.083Z,34.21
2023-05-19T14:46:28.690Z,34.33
2023-05-19T14:48:55.387Z,34.15
2023-05-19T14:51:21.906Z,34.36
2023-05-19T14:53:48.458Z,34.25
2023-05-19T14:56:15.060Z,34.29
2023-05-19T14:58:41.607Z,34.54
2023-05-19T15:01:08.212Z,34.61
2023-05-19T15:03:34.802Z,34.64
2023-05-19T15:06:01.390Z,34.76
2023-05-19T15:08:27.979Z,34.93
2023-05-19T15:10:54.538Z,34.90
2023-05-19T15:13:21.073Z,34.11
2023-05-19T15:15:47.657Z,34.55
2023-05-19T15:18:14.252Z,34.62
2023-05-19T15:20:40.860Z,34.88
2023-05-19T15:23:07.470Z,34.25
2023-05-19T15:25:34.042Z,34.58
2023-05-19T15:28:00.562Z,34.51
2023-05-19T15:30:27.045Z,34.36
2023-05-19T15:32:55.223Z,34.40
2023-05-19T15:35:22.024Z,34.63
2023-05-19T15:37:48.524Z,34.81
2023-05-19T15:40:15.056Z,35.24
2023-05-19T15:42:41.614Z,34.84
2023-05-19T15:45:08.259Z,35.50
2023-05-19T15:47:34.970Z,35.07
2023-05-19T15:50:01.657Z,35.47
2023-05-19T15:52:28.230Z,35.62
2023-05-19T15:54:57.815Z,35.61
2023-05-19T15:57:24.305Z,35.54
2023-05-19T15:59:50.866Z,35.63
2023-05-19T16:02:18.237Z,35.62
2023-05-19T16:04:44.761Z,35.74
2023-05-19T16:07:11.428Z,35.77
2023-05-19T16:09:38.061Z,35.74
2023-05-19T16:12:04.650Z,35.67
2023-05-19T16:14:31.292Z,35.53
2023-05-19T16:16:57.883Z,35.64
2023-05-19T16:19:24.416Z,35.70
2023-05-19T16:21:50.930Z,35.86
2023-05-19T16:24:17.463Z,35.76
2023-05-19T16:26:43.955Z,35.85
2023-05-19T16:29:10.495Z,35.77
2023-05-19T16:31:37.103Z,36.04
2023-05-19T16:34:03.700Z,36.08
2023-05-19T16:36:30.270Z,35.89
2023-05-19T16:38:56.811Z,36.06
2023-05-19T16:41:23.306Z,36.04
2023-05-19T16:43:49.834Z,35.98
2023-05-19T16:46:16.412Z,36.09
2023-05-19T16:48:43.076Z,35.87
2023-05-19T16:51:09.657Z,36.26
2023-05-19T16:53:36.243Z,36.02
2023-05-19T16:56:02.834Z,36.20
2023-05-19T16:58:30.847Z,36.43
2023-05-19T17:00:57.648Z,36.03
2023-05-19T17:03:24.307Z,36.16
2023-05-19T17:05:50.999Z,36.03
2023-05-19T17:08:17.561Z,36.15
2023-05-19T17:10:44.062Z,37.13
2023-05-19T17:13:10.593Z,36.79
2023-05-19T17:15:37.159Z,37.49
2023-05-19T17:18:03.744Z,37.55
2023-05-19T17:20:30.285Z,38.05
2023-05-19T17:22:56.773Z,38.11
2023-05-19T17:25:26.148Z,38.04
2023-05-19T17:27:53.008Z,38.78
2023-05-19T17:30:19.625Z,38.86
2023-05-19T17:32:46.337Z,39.48
2023-05-19T17:35:12.986Z,38.84
2023-05-19T17:37:39.540Z,38.56
2023-05-19T17:40:06.092Z,38.79
2023-05-19T17:42:33.089Z,38.61
2023-05-19T17:44:59.663Z,38.03
2023-05-19T17:47:26.285Z,37.77
2023-05-19T17:49:52.830Z,38.21
2023-05-19T17:52:19.396Z,38.38
2023-05-19T17:54:45.937Z,37.95
2023-05-19T17:57:12.503Z,38.01
2023-05-19T17:59:38.975Z,38.16
2023-05-19T18:02:05.590Z,38.40
2023-05-19T18:04:32.156Z,38.84
2023-05-19T18:06:58.731Z,39.11
2023-05-19T18:09:27.918Z,38.85
2023-05-19T18:11:55.372Z,39.33
2023-05-19T18:14:22.039Z,39.08
2023-05-19T18:16:48.743Z,39.03
2023-05-19T18:19:15.375Z,39.44
2023-05-19T18:21:41.991Z,39.41
2023-05-19T18:24:08.550Z,39.80
2023-05-19T18:26:35.063Z,39.62
2023-05-19T18:29:01.672Z,39.88
2023-05-19T18:31:28.308Z,39.50
2023-05-19T18:33:54.846Z,39.78
2023-05-19T18:36:21.610Z,39.61
2023-05-19T18:38:48.188Z,39.68
2023-05-19T18:41:14.816Z,39.69
2023-05-19T18:43:41.334Z,39.90
2023-05-19T18:46:07.927Z,39.77
2023-05-19T18:48:34.424Z,39.57
2023-05-19T18:51:00.995Z,39.81
2023-05-19T18:53:27.500Z,40.27
2023-05-19T18:55:54.029Z,40.01
2023-05-19T18:58:20.555Z,39.75
2023-05-19T19:00:47.119Z,39.95
2023-05-19T19:03:13.712Z,40.07
2023-05-19T19:05:40.296Z,40.25
2023-05-19T19:08:06.860Z,40.37
2023-05-19T19:10:33.683Z,40.27
2023-05-19T19:13:00.369Z,40.13
2023-05-19T19:15:26.889Z,40.26
2023-05-19T19:17:53.565Z,40.48
2023-05-19T19:20:20.033Z,40.47
2023-05-19T19:22:46.608Z,40.28
2023-05-19T19:25:13.182Z,40.67
2023-05-19T19:27:39.718Z,40.78
2023-05-19T19:30:06.264Z,40.77
2023-05-19T19:32:32.825Z,40.95
2023-05-19T19:34:59.460Z,40.71
2023-05-19T19:37:26.001Z,40.84
2023-05-19T19:39:52.562Z,41.06
2023-05-19T19:42:19.136Z,40.73
2023-05-19T19:44:45.754Z,40.78
2023-05-19T19:47:12.298Z,40.96
2023-05-19T19:49:38.839Z,40.91
2023-05-19T19:52:05.432Z,40.80
2023-05-19T19:54:31.953Z,40.87
2023-05-19T19:56:58.466Z,41.05
2023-05-19T19:59:25.278Z,41.01
2023-05-19T20:01:52.814Z,40.85
2023-05-19T20:04:19.559Z,41.16
2023-05-19T20:06:46.119Z,41.03
2023-05-19T20:09:12.625Z,41.09
2023-05-19T20:14:05.659Z,42.51
2023-05-19T20:16:32.291Z,42.51
2023-05-19T20:18:58.952Z,42.56
2023-05-19T20:21:25.481Z,42.89
2023-05-19T20:23:52.052Z,42.55
2023-05-19T20:26:18.537Z,42.56
2023-05-19T20:28:45.136Z,42.96
2023-05-19T20:31:11.787Z,43.79
2023-05-19T20:33:38.404Z,44.03
2023-05-19T20:36:05.063Z,44.47
2023-05-19T20:38:31.662Z,45.21
2023-05-19T20:40:58.302Z,45.12
2023-05-19T20:43:24.863Z,44.75
2023-05-19T20:45:51.581Z,44.94
2023-05-19T20:48:18.283Z,45.04
2023-05-19T20:50:45.003Z,45.00
2023-05-19T20:53:11.592Z,44.56
2023-05-19T20:55:38.112Z,44.26
2023-05-19T20:58:04.764Z,44.51
2023-05-19T21:00:31.316Z,44.36
2023-05-19T21:02:58.135Z,44.66
2023-05-19T21:05:24.785Z,44.40
2023-05-19T21:07:51.381Z,44.40
2023-05-19T21:10:18.060Z,44.25
2023-05-19T21:12:44.702Z,44.40
2023-05-19T21:15:11.222Z,44.72
2023-05-19T21:17:37.864Z,44.51
2023-05-19T21:20:04.610Z,44.36
2023-05-19T21:22:31.217Z,44.53
2023-05-19T21:24:57.780Z,44.74
2023-05-19T21:27:24.348Z,44.59
2023-05-19T21:29:50.980Z,44.62
2023-05-19T21:32:17.535Z,44.61
2023-05-19T21:34:44.128Z,44.61
2023-05-19T21:37:10.740Z,44.51
2023-05-19T21:39:37.288Z,44.70
2023-05-19T21:42:03.930Z,44.85
2023-05-19T21:44:30.567Z,44.73
2023-05-19T21:46:57.220Z,44.52
2023-05-19T21:49:23.986Z,44.70
2023-05-19T21:51:50.572Z,44.32
2023-05-19T21:54:17.179Z,44.58
2023-05-19T21:56:43.718Z,44.62
2023-05-19T21:59:10.271Z,44.58
2023-05-19T22:01:36.852Z,44.36
2023-05-19T22:04:03.560Z,44.53
2023-05-19T22:06:30.168Z,44.52
2023-05-19T22:08:56.757Z,44.65
2023-05-19T22:11:23.308Z,44.62
2023-05-19T22:13:49.934Z,44.39
2023-05-19T22:16:16.663Z,44.60
2023-05-19T22:18:43.270Z,44.87
2023-05-19T22:21:09.812Z,44.84
2023-05-19T22:23:36.374Z,44.64
2023-05-19T22:26:02.946Z,44.45
2023-05-19T22:28:29.515Z,44.65
2023-05-19T22:30:56.141Z,44.52
2023-05-19T22:33:22.769Z,44.74
2023-05-19T22:35:49.411Z,44.64
2023-05-19T22:38:16.030Z,44.67
2023-05-19T22:40:42.500Z,44.05
2023-05-19T22:43:11.831Z,44.38
2023-05-19T22:45:38.675Z,44.49
2023-05-19T22:48:05.527Z,44.36
2023-05-19T22:50:32.155Z,44.38
2023-05-19T22:52:58.783Z,44.44
2023-05-19T22:55:25.327Z,44.36
2023-05-19T22:57:51.915Z,44.49
2023-05-19T23:00:18.444Z,44.30
2023-05-19T23:02:45.095Z,44.38
2023-05-19T23:05:11.633Z,44.70
2023-05-19T23:07:38.285Z,44.43
2023-05-19T23:10:04.933Z,44.44
2023-05-19T23:12:31.551Z,44.44
2023-05-19T23:14:58.082Z,44.20
2023-05-19T23:17:24.745Z,44.12
2023-05-19T23:19:51.327Z,44.14
2023-05-19T23:22:17.859Z,44.18
2023-05-19T23:24:44.423Z,44.32
2023-05-19T23:27:10.944Z,44.39
2023-05-19T23:29:37.519Z,44.36
2023-05-19T23:32:04.101Z,44.03
2023-05-19T23:34:30.697Z,44.09
2023-05-19T23:36:57.312Z,44.28
2023-05-19T23:39:23.844Z,44.51
2023-05-19T23:41:50.362Z,44.46
2023-05-19T23:44:16.909Z,44.21
2023-05-19T23:46:43.670Z,44.49
2023-05-19T23:49:10.289Z,44.45
2023-05-19T23:51:36.866Z,44.41
2023-05-19T23:54:03.367Z,44.40
2023-05-19T23:56:29.960Z,44.09
2023-05-19T23:58:56.568Z,44.02
